sensor_id;sensor_type;location;lat;lon;timestamp;temperature;humidity
5218;DHT22;26539;51.064;6.346;2023-12-07T00:01:52;2.80;1.00
5218;DHT22;26539;51.064;6.346;2023-12-07T00:04:17;2.80;1.00
5218;DHT22;26539;51.064;6.346;2023-12-07T00:06:43;2.70;1.00
5218;DHT22;26539;51.064;6.346;2023-12-07T00:09:08;2.70;1.00
5218;DHT22;26539;51.064;6.346;2023-12-07T00:11:34;2.70;1.00
5218;DHT22;26539;51.064;6.346;2023-12-07T00:13:59;2.70;1.00
5218;DHT22;26539;51.064;6.346;2023-12-07T00:16:25;2.70;1.00
5218;DHT22;26539;51.064;6.346;2023-12-07T00:18:50;2.70;1.00
5218;DHT22;26539;51.064;6.346;2023-12-07T00:21:16;2.70;1.00
5218;DHT22;26539;51.064;6.346;2023-12-07T00:23:41;2.70;1.00
5218;DHT22;26539;51.064;6.346;2023-12-07T00:26:07;2.70;1.00
5218;DHT22;26539;51.064;6.346;2023-12-07T00:28:32;2.70;1.00
5218;DHT22;26539;51.064;6.346;2023-12-07T00:30:58;2.70;1.00
5218;DHT22;26539;51.064;6.346;2023-12-07T00:33:23;2.70;1.00
5218;DHT22;26539;51.064;6.346;2023-12-07T00:35:49;2.70;1.00
5218;DHT22;26539;51.064;6.346;2023-12-07T00:38:15;2.70;1.00
5218;DHT22;26539;51.064;6.346;2023-12-07T00:40:40;2.70;1.00
5218;DHT22;26539;51.064;6.346;2023-12-07T00:43:06;2.70;1.00
5218;DHT22;26539;51.064;6.346;2023-12-07T00:45:32;2.70;1.00
5218;DHT22;26539;51.064;6.346;2023-12-07T00:47:58;2.70;1.00
5218;DHT22;26539;51.064;6.346;2023-12-07T00:50:24;2.70;1.00
5218;DHT22;26539;51.064;6.346;2023-12-07T00:52:49;2.70;1.00
5218;DHT22;26539;51.064;6.346;2023-12-07T00:55:15;2.70;1.00
5218;DHT22;26539;51.064;6.346;2023-12-07T00:57:40;2.70;1.00
5218;DHT22;26539;51.064;6.346;2023-12-07T01:00:06;2.70;1.00
5218;DHT22;26539;51.064;6.346;2023-12-07T01:02:33;2.70;1.00
5218;DHT22;26539;51.064;6.346;2023-12-07T01:04:58;2.70;1.00
5218;DHT22;26539;51.064;6.346;2023-12-07T01:07:24;2.70;1.00
5218;DHT22;26539;51.064;6.346;2023-12-07T01:09:49;2.70;1.00
5218;DHT22;26539;51.064;6.346;2023-12-07T01:12:15;2.70;1.00
5218;DHT22;26539;51.064;6.346;2023-12-07T01:14:40;2.70;1.00
5218;DHT22;26539;51.064;6.346;2023-12-07T01:17:06;2.70;1.00
5218;DHT22;26539;51.064;6.346;2023-12-07T01:19:32;2.60;1.00
5218;DHT22;26539;51.064;6.346;2023-12-07T01:21:57;2.60;1.00
5218;DHT22;26539;51.064;6.346;2023-12-07T01:24:23;2.60;1.00
5218;DHT22;26539;51.064;6.346;2023-12-07T01:26:48;2.60;1.00
5218;DHT22;26539;51.064;6.346;2023-12-07T01:29:14;2.60;1.00
5218;DHT22;26539;51.064;6.346;2023-12-07T01:31:40;2.60;1.00
5218;DHT22;26539;51.064;6.346;2023-12-07T01:34:06;2.60;1.00
5218;DHT22;26539;51.064;6.346;2023-12-07T01:36:31;2.60;1.00
5218;DHT22;26539;51.064;6.346;2023-12-07T01:38:57;2.60;1.00
5218;DHT22;26539;51.064;6.346;2023-12-07T01:41:23;2.60;1.00
5218;DHT22;26539;51.064;6.346;2023-12-07T01:43:49;2.60;2.10
5218;DHT22;26539;51.064;6.346;2023-12-07T01:46:16;2.60;4.90
5218;DHT22;26539;51.064;6.346;2023-12-07T01:48:43;2.60;7.90
5218;DHT22;26539;51.064;6.346;2023-12-07T01:51:09;2.60;9.50
5218;DHT22;26539;51.064;6.346;2023-12-07T01:53:35;2.60;12.40
5218;DHT22;26539;51.064;6.346;2023-12-07T01:56:02;2.70;16.20
5218;DHT22;26539;51.064;6.346;2023-12-07T01:58:29;2.70;19.70
5218;DHT22;26539;51.064;6.346;2023-12-07T02:00:55;2.70;22.80
5218;DHT22;26539;51.064;6.346;2023-12-07T02:03:20;2.70;25.50
5218;DHT22;26539;51.064;6.346;2023-12-07T02:05:47;2.80;28.10
5218;DHT22;26539;51.064;6.346;2023-12-07T02:08:14;2.80;31.30
5218;DHT22;26539;51.064;6.346;2023-12-07T02:10:39;2.80;33.70
5218;DHT22;26539;51.064;6.346;2023-12-07T02:13:06;2.80;37.00
5218;DHT22;26539;51.064;6.346;2023-12-07T02:15:31;2.90;37.80
5218;DHT22;26539;51.064;6.346;2023-12-07T02:20:49;2.90;33.10
5218;DHT22;26539;51.064;6.346;2023-12-07T02:23:18;2.80;28.30
5218;DHT22;26539;51.064;6.346;2023-12-07T02:29:06;2.80;21.50
5218;DHT22;26539;51.064;6.346;2023-12-07T02:31:32;2.80;18.90
5218;DHT22;26539;51.064;6.346;2023-12-07T02:33:57;2.70;17.40
5218;DHT22;26539;51.064;6.346;2023-12-07T02:36:24;2.70;16.70
5218;DHT22;26539;51.064;6.346;2023-12-07T02:38:53;2.70;15.80
5218;DHT22;26539;51.064;6.346;2023-12-07T02:41:21;2.70;12.70
5218;DHT22;26539;51.064;6.346;2023-12-07T02:43:47;2.70;10.70
5218;DHT22;26539;51.064;6.346;2023-12-07T02:46:13;2.60;9.70
5218;DHT22;26539;51.064;6.346;2023-12-07T02:48:38;2.60;10.50
5218;DHT22;26539;51.064;6.346;2023-12-07T02:51:04;2.60;12.80
5218;DHT22;26539;51.064;6.346;2023-12-07T02:53:30;2.60;14.80
5218;DHT22;26539;51.064;6.346;2023-12-07T02:55:55;2.60;14.60
5218;DHT22;26539;51.064;6.346;2023-12-07T02:58:20;2.60;13.10
5218;DHT22;26539;51.064;6.346;2023-12-07T03:00:46;2.50;12.60
5218;DHT22;26539;51.064;6.346;2023-12-07T03:03:12;2.60;14.20
5218;DHT22;26539;51.064;6.346;2023-12-07T03:05:40;2.60;13.70
5218;DHT22;26539;51.064;6.346;2023-12-07T03:08:13;2.60;12.60
5218;DHT22;26539;51.064;6.346;2023-12-07T03:10:44;2.50;12.50
5218;DHT22;26539;51.064;6.346;2023-12-07T03:13:10;2.50;11.30
5218;DHT22;26539;51.064;6.346;2023-12-07T03:15:46;2.50;9.60
5218;DHT22;26539;51.064;6.346;2023-12-07T03:18:17;2.50;3.80
5218;DHT22;26539;51.064;6.346;2023-12-07T03:20:48;2.40;1.00
5218;DHT22;26539;51.064;6.346;2023-12-07T03:23:16;2.40;1.00
5218;DHT22;26539;51.064;6.346;2023-12-07T03:25:44;2.30;1.00
5218;DHT22;26539;51.064;6.346;2023-12-07T03:28:10;2.30;1.00
5218;DHT22;26539;51.064;6.346;2023-12-07T03:30:38;2.30;4.20
5218;DHT22;26539;51.064;6.346;2023-12-07T03:33:06;2.30;6.50
5218;DHT22;26539;51.064;6.346;2023-12-07T03:35:34;2.30;6.50
5218;DHT22;26539;51.064;6.346;2023-12-07T03:38:07;2.30;5.10
5218;DHT22;26539;51.064;6.346;2023-12-07T03:40:33;2.30;4.80
5218;DHT22;26539;51.064;6.346;2023-12-07T03:42:59;2.30;5.60
5218;DHT22;26539;51.064;6.346;2023-12-07T03:45:31;2.30;7.90
5218;DHT22;26539;51.064;6.346;2023-12-07T03:47:57;2.30;9.20
5218;DHT22;26539;51.064;6.346;2023-12-07T03:50:25;2.30;9.00
5218;DHT22;26539;51.064;6.346;2023-12-07T03:52:51;2.30;6.60
5218;DHT22;26539;51.064;6.346;2023-12-07T03:55:19;2.30;5.50
5218;DHT22;26539;51.064;6.346;2023-12-07T03:58:07;2.30;5.60
5218;DHT22;26539;51.064;6.346;2023-12-07T04:00:33;2.30;2.80
5218;DHT22;26539;51.064;6.346;2023-12-07T04:02:58;2.20;1.00
5218;DHT22;26539;51.064;6.346;2023-12-07T04:05:30;2.20;1.00
5218;DHT22;26539;51.064;6.346;2023-12-07T04:07:58;2.20;1.00
5218;DHT22;26539;51.064;6.346;2023-12-07T04:10:41;2.20;1.00
5218;DHT22;26539;51.064;6.346;2023-12-07T04:13:07;2.20;1.30
5218;DHT22;26539;51.064;6.346;2023-12-07T04:15:33;2.20;1.80
5218;DHT22;26539;51.064;6.346;2023-12-07T04:18:01;2.20;1.00
5218;DHT22;26539;51.064;6.346;2023-12-07T04:20:28;2.20;1.00
5218;DHT22;26539;51.064;6.346;2023-12-07T04:23:04;2.10;1.00
5218;DHT22;26539;51.064;6.346;2023-12-07T04:25:30;2.10;1.00
5218;DHT22;26539;51.064;6.346;2023-12-07T04:27:55;2.10;1.00
5218;DHT22;26539;51.064;6.346;2023-12-07T04:30:31;2.00;1.00
5218;DHT22;26539;51.064;6.346;2023-12-07T04:33:01;2.00;1.00
5218;DHT22;26539;51.064;6.346;2023-12-07T04:35:29;1.90;1.00
5218;DHT22;26539;51.064;6.346;2023-12-07T04:37:55;1.90;1.00
5218;DHT22;26539;51.064;6.346;2023-12-07T04:40:21;1.90;1.00
5218;DHT22;26539;51.064;6.346;2023-12-07T04:42:47;1.90;1.00
5218;DHT22;26539;51.064;6.346;2023-12-07T04:47:56;1.90;1.00
5218;DHT22;26539;51.064;6.346;2023-12-07T04:50:35;1.80;1.00
5218;DHT22;26539;51.064;6.346;2023-12-07T04:53:05;1.80;1.00
5218;DHT22;26539;51.064;6.346;2023-12-07T04:55:33;1.80;1.00
5218;DHT22;26539;51.064;6.346;2023-12-07T04:58:01;1.90;1.00
5218;DHT22;26539;51.064;6.346;2023-12-07T05:00:33;2.00;1.80
5218;DHT22;26539;51.064;6.346;2023-12-07T05:03:14;2.00;5.20
5218;DHT22;26539;51.064;6.346;2023-12-07T05:05:42;2.00;7.30
5218;DHT22;26539;51.064;6.346;2023-12-07T05:08:20;2.10;8.30
5218;DHT22;26539;51.064;6.346;2023-12-07T05:10:50;2.10;5.80
5218;DHT22;26539;51.064;6.346;2023-12-07T05:13:20;2.10;3.20
5218;DHT22;26539;51.064;6.346;2023-12-07T05:15:59;2.10;5.70
5218;DHT22;26539;51.064;6.346;2023-12-07T05:18:36;2.10;10.20
5218;DHT22;26539;51.064;6.346;2023-12-07T05:21:22;2.20;10.80
5218;DHT22;26539;51.064;6.346;2023-12-07T05:24:02;2.20;7.40
5218;DHT22;26539;51.064;6.346;2023-12-07T05:26:33;2.20;5.20
5218;DHT22;26539;51.064;6.346;2023-12-07T05:29:10;2.20;3.20
5218;DHT22;26539;51.064;6.346;2023-12-07T05:31:49;2.20;1.00
5218;DHT22;26539;51.064;6.346;2023-12-07T05:34:23;2.00;1.00
5218;DHT22;26539;51.064;6.346;2023-12-07T05:36:49;1.90;1.00
5218;DHT22;26539;51.064;6.346;2023-12-07T05:39:38;1.80;1.00
5218;DHT22;26539;51.064;6.346;2023-12-07T05:42:16;1.70;1.00
5218;DHT22;26539;51.064;6.346;2023-12-07T05:44:45;1.70;1.00
5218;DHT22;26539;51.064;6.346;2023-12-07T05:47:27;1.70;1.00
5218;DHT22;26539;51.064;6.346;2023-12-07T05:50:08;1.70;1.00
5218;DHT22;26539;51.064;6.346;2023-12-07T05:52:42;1.70;1.00
5218;DHT22;26539;51.064;6.346;2023-12-07T05:55:11;1.60;1.00
5218;DHT22;26539;51.064;6.346;2023-12-07T05:57:44;1.60;1.00
5218;DHT22;26539;51.064;6.346;2023-12-07T06:00:10;1.50;1.00
5218;DHT22;26539;51.064;6.346;2023-12-07T06:02:36;1.60;1.00
5218;DHT22;26539;51.064;6.346;2023-12-07T06:05:02;1.70;5.60
5218;DHT22;26539;51.064;6.346;2023-12-07T06:07:31;1.70;9.40
5218;DHT22;26539;51.064;6.346;2023-12-07T06:09:59;1.80;10.00
5218;DHT22;26539;51.064;6.346;2023-12-07T06:12:25;1.80;10.70
5218;DHT22;26539;51.064;6.346;2023-12-07T06:14:50;1.90;10.70
5218;DHT22;26539;51.064;6.346;2023-12-07T06:17:19;1.90;4.70
5218;DHT22;26539;51.064;6.346;2023-12-07T06:19:45;1.90;3.00
5218;DHT22;26539;51.064;6.346;2023-12-07T06:22:10;1.90;3.70
5218;DHT22;26539;51.064;6.346;2023-12-07T06:24:36;1.90;2.20
5218;DHT22;26539;51.064;6.346;2023-12-07T06:27:02;1.90;3.60
5218;DHT22;26539;51.064;6.346;2023-12-07T06:29:28;1.90;2.30
5218;DHT22;26539;51.064;6.346;2023-12-07T06:31:54;1.80;1.00
5218;DHT22;26539;51.064;6.346;2023-12-07T06:34:20;1.70;1.00
5218;DHT22;26539;51.064;6.346;2023-12-07T06:36:45;1.70;1.00
5218;DHT22;26539;51.064;6.346;2023-12-07T06:39:11;1.60;1.00
5218;DHT22;26539;51.064;6.346;2023-12-07T06:41:37;1.50;1.00
5218;DHT22;26539;51.064;6.346;2023-12-07T06:44:02;1.50;1.00
5218;DHT22;26539;51.064;6.346;2023-12-07T06:46:28;1.50;1.00
5218;DHT22;26539;51.064;6.346;2023-12-07T06:48:54;1.50;1.00
5218;DHT22;26539;51.064;6.346;2023-12-07T06:51:30;1.50;1.00
5218;DHT22;26539;51.064;6.346;2023-12-07T06:53:58;1.50;1.00
5218;DHT22;26539;51.064;6.346;2023-12-07T06:56:23;1.50;1.00
5218;DHT22;26539;51.064;6.346;2023-12-07T06:58:51;1.50;1.00
5218;DHT22;26539;51.064;6.346;2023-12-07T07:01:17;1.50;1.00
5218;DHT22;26539;51.064;6.346;2023-12-07T07:03:42;1.50;1.00
5218;DHT22;26539;51.064;6.346;2023-12-07T07:06:08;1.50;1.00
5218;DHT22;26539;51.064;6.346;2023-12-07T07:08:34;1.50;1.00
5218;DHT22;26539;51.064;6.346;2023-12-07T07:10:59;1.50;1.00
5218;DHT22;26539;51.064;6.346;2023-12-07T07:13:25;1.50;1.00
5218;DHT22;26539;51.064;6.346;2023-12-07T07:15:50;1.50;1.00
5218;DHT22;26539;51.064;6.346;2023-12-07T07:18:16;1.50;1.00
5218;DHT22;26539;51.064;6.346;2023-12-07T07:20:41;1.50;1.00
5218;DHT22;26539;51.064;6.346;2023-12-07T07:23:07;1.60;1.00
5218;DHT22;26539;51.064;6.346;2023-12-07T07:25:34;1.60;1.00
5218;DHT22;26539;51.064;6.346;2023-12-07T07:28:00;1.70;1.00
5218;DHT22;26539;51.064;6.346;2023-12-07T07:30:25;1.70;1.00
5218;DHT22;26539;51.064;6.346;2023-12-07T07:32:52;1.70;1.00
5218;DHT22;26539;51.064;6.346;2023-12-07T07:35:17;1.70;1.00
5218;DHT22;26539;51.064;6.346;2023-12-07T07:37:43;1.70;1.00
5218;DHT22;26539;51.064;6.346;2023-12-07T07:40:09;1.80;1.00
5218;DHT22;26539;51.064;6.346;2023-12-07T07:42:37;1.80;1.00
5218;DHT22;26539;51.064;6.346;2023-12-07T07:45:04;1.90;1.00
5218;DHT22;26539;51.064;6.346;2023-12-07T07:47:30;1.90;1.00
5218;DHT22;26539;51.064;6.346;2023-12-07T07:49:56;2.00;1.00
5218;DHT22;26539;51.064;6.346;2023-12-07T07:52:21;2.10;1.00
5218;DHT22;26539;51.064;6.346;2023-12-07T07:54:47;2.20;1.00
5218;DHT22;26539;51.064;6.346;2023-12-07T07:57:12;2.40;1.00
5218;DHT22;26539;51.064;6.346;2023-12-07T07:59:38;2.50;1.00
5218;DHT22;26539;51.064;6.346;2023-12-07T08:02:04;2.60;1.00
5218;DHT22;26539;51.064;6.346;2023-12-07T08:04:29;2.70;1.00
5218;DHT22;26539;51.064;6.346;2023-12-07T08:06:55;2.80;1.00
5218;DHT22;26539;51.064;6.346;2023-12-07T08:09:20;3.00;1.00
5218;DHT22;26539;51.064;6.346;2023-12-07T08:11:46;3.10;99.90
5218;DHT22;26539;51.064;6.346;2023-12-07T08:14:11;3.20;99.90
5218;DHT22;26539;51.064;6.346;2023-12-07T08:16:38;3.40;99.90
5218;DHT22;26539;51.064;6.346;2023-12-07T08:19:03;3.50;99.90
5218;DHT22;26539;51.064;6.346;2023-12-07T08:21:29;3.90;99.90
5218;DHT22;26539;51.064;6.346;2023-12-07T08:23:55;4.70;99.90
5218;DHT22;26539;51.064;6.346;2023-12-07T08:26:23;6.10;1.00
5218;DHT22;26539;51.064;6.346;2023-12-07T08:28:53;7.10;40.40
5218;DHT22;26539;51.064;6.346;2023-12-07T08:31:19;7.10;3.70
5218;DHT22;26539;51.064;6.346;2023-12-07T08:33:45;6.80;99.90
5218;DHT22;26539;51.064;6.346;2023-12-07T08:36:11;6.60;99.90
5218;DHT22;26539;51.064;6.346;2023-12-07T08:38:36;6.60;1.00
5218;DHT22;26539;51.064;6.346;2023-12-07T08:41:02;6.70;1.00
5218;DHT22;26539;51.064;6.346;2023-12-07T08:43:28;6.80;1.00
5218;DHT22;26539;51.064;6.346;2023-12-07T08:45:55;6.60;99.90
5218;DHT22;26539;51.064;6.346;2023-12-07T08:48:21;6.20;1.00
5218;DHT22;26539;51.064;6.346;2023-12-07T08:50:47;5.90;50.10
5218;DHT22;26539;51.064;6.346;2023-12-07T08:53:12;5.60;99.90
5218;DHT22;26539;51.064;6.346;2023-12-07T08:55:38;5.50;1.00
5218;DHT22;26539;51.064;6.346;2023-12-07T08:58:09;5.30;99.90
5218;DHT22;26539;51.064;6.346;2023-12-07T09:00:37;5.30;18.70
5218;DHT22;26539;51.064;6.346;2023-12-07T09:03:03;5.10;44.00
5218;DHT22;26539;51.064;6.346;2023-12-07T09:05:28;4.80;1.00
5218;DHT22;26539;51.064;6.346;2023-12-07T09:07:55;4.60;1.00
5218;DHT22;26539;51.064;6.346;2023-12-07T09:10:21;4.50;57.60
5218;DHT22;26539;51.064;6.346;2023-12-07T09:12:47;4.50;1.00
5218;DHT22;26539;51.064;6.346;2023-12-07T09:15:12;4.40;99.90
5218;DHT22;26539;51.064;6.346;2023-12-07T09:17:38;4.40;99.90
5218;DHT22;26539;51.064;6.346;2023-12-07T09:20:11;4.40;95.00
5218;DHT22;26539;51.064;6.346;2023-12-07T09:22:46;4.40;99.90
5218;DHT22;26539;51.064;6.346;2023-12-07T09:25:12;4.40;99.90
5218;DHT22;26539;51.064;6.346;2023-12-07T09:27:39;4.40;1.00
5218;DHT22;26539;51.064;6.346;2023-12-07T09:30:06;4.50;99.90
5218;DHT22;26539;51.064;6.346;2023-12-07T09:32:32;4.50;23.90
5218;DHT22;26539;51.064;6.346;2023-12-07T09:35:06;4.50;99.90
5218;DHT22;26539;51.064;6.346;2023-12-07T09:37:33;4.50;1.00
5218;DHT22;26539;51.064;6.346;2023-12-07T09:40:07;4.60;1.00
5218;DHT22;26539;51.064;6.346;2023-12-07T09:42:35;4.50;99.90
5218;DHT22;26539;51.064;6.346;2023-12-07T09:45:01;4.50;1.00
5218;DHT22;26539;51.064;6.346;2023-12-07T09:47:34;4.70;99.90
5218;DHT22;26539;51.064;6.346;2023-12-07T09:50:00;4.80;1.00
5218;DHT22;26539;51.064;6.346;2023-12-07T09:52:29;4.80;99.90
5218;DHT22;26539;51.064;6.346;2023-12-07T09:54:55;4.70;1.00
5218;DHT22;26539;51.064;6.346;2023-12-07T09:57:25;4.80;1.00
5218;DHT22;26539;51.064;6.346;2023-12-07T09:59:56;4.70;99.90
5218;DHT22;26539;51.064;6.346;2023-12-07T10:02:24;4.90;99.90
5218;DHT22;26539;51.064;6.346;2023-12-07T10:05:13;4.90;99.90
5218;DHT22;26539;51.064;6.346;2023-12-07T10:07:49;4.80;99.90
5218;DHT22;26539;51.064;6.346;2023-12-07T10:10:16;4.80;99.90
5218;DHT22;26539;51.064;6.346;2023-12-07T10:12:56;4.70;1.00
5218;DHT22;26539;51.064;6.346;2023-12-07T10:15:23;4.60;1.00
5218;DHT22;26539;51.064;6.346;2023-12-07T10:17:52;4.60;1.00
5218;DHT22;26539;51.064;6.346;2023-12-07T10:20:25;4.50;42.40
5218;DHT22;26539;51.064;6.346;2023-12-07T10:23:11;4.60;1.00
5218;DHT22;26539;51.064;6.346;2023-12-07T10:25:41;4.60;1.00
5218;DHT22;26539;51.064;6.346;2023-12-07T10:28:10;4.70;99.90
5218;DHT22;26539;51.064;6.346;2023-12-07T10:30:43;4.90;1.00
5218;DHT22;26539;51.064;6.346;2023-12-07T10:33:09;4.80;99.90
5218;DHT22;26539;51.064;6.346;2023-12-07T10:35:47;4.90;74.90
5218;DHT22;26539;51.064;6.346;2023-12-07T10:38:16;5.00;99.90
5218;DHT22;26539;51.064;6.346;2023-12-07T10:40:42;5.00;4.40
5218;DHT22;26539;51.064;6.346;2023-12-07T10:43:08;4.90;1.00
5218;DHT22;26539;51.064;6.346;2023-12-07T10:45:35;4.90;1.00
5218;DHT22;26539;51.064;6.346;2023-12-07T10:48:07;5.00;1.00
5218;DHT22;26539;51.064;6.346;2023-12-07T10:50:37;5.10;1.00
5218;DHT22;26539;51.064;6.346;2023-12-07T10:53:36;5.00;1.00
5218;DHT22;26539;51.064;6.346;2023-12-07T10:58:55;5.00;73.10
5218;DHT22;26539;51.064;6.346;2023-12-07T11:01:22;5.20;99.90
5218;DHT22;26539;51.064;6.346;2023-12-07T11:03:50;5.30;99.90
5218;DHT22;26539;51.064;6.346;2023-12-07T11:06:18;5.30;99.90
5218;DHT22;26539;51.064;6.346;2023-12-07T11:08:50;5.20;1.00
5218;DHT22;26539;51.064;6.346;2023-12-07T11:11:28;5.30;1.00
5218;DHT22;26539;51.064;6.346;2023-12-07T11:14:02;5.40;23.20
5218;DHT22;26539;51.064;6.346;2023-12-07T11:16:34;5.40;9.60
5218;DHT22;26539;51.064;6.346;2023-12-07T11:19:01;5.90;1.00
5218;DHT22;26539;51.064;6.346;2023-12-07T11:21:27;6.70;99.90
5218;DHT22;26539;51.064;6.346;2023-12-07T11:23:53;8.00;99.90
5218;DHT22;26539;51.064;6.346;2023-12-07T11:26:26;9.10;1.00
5218;DHT22;26539;51.064;6.346;2023-12-07T11:28:54;10.10;1.00
5218;DHT22;26539;51.064;6.346;2023-12-07T11:31:20;10.50;1.00
5218;DHT22;26539;51.064;6.346;2023-12-07T11:33:46;10.40;1.00
5218;DHT22;26539;51.064;6.346;2023-12-07T11:36:13;11.20;1.00
5218;DHT22;26539;51.064;6.346;2023-12-07T11:41:44;11.40;99.90
5218;DHT22;26539;51.064;6.346;2023-12-07T11:44:10;11.90;99.90
5218;DHT22;26539;51.064;6.346;2023-12-07T11:46:39;12.20;99.90
5218;DHT22;26539;51.064;6.346;2023-12-07T11:49:05;12.10;99.90
5218;DHT22;26539;51.064;6.346;2023-12-07T11:51:36;12.20;99.90
5218;DHT22;26539;51.064;6.346;2023-12-07T11:54:01;12.30;99.90
5218;DHT22;26539;51.064;6.346;2023-12-07T11:56:30;12.60;99.90
5218;DHT22;26539;51.064;6.346;2023-12-07T11:59:03;12.40;99.90
5218;DHT22;26539;51.064;6.346;2023-12-07T12:01:29;12.30;99.90
5218;DHT22;26539;51.064;6.346;2023-12-07T12:03:58;12.10;99.90
5218;DHT22;26539;51.064;6.346;2023-12-07T12:06:24;12.10;99.90
5218;DHT22;26539;51.064;6.346;2023-12-07T12:08:51;12.40;99.90
5218;DHT22;26539;51.064;6.346;2023-12-07T12:11:18;12.30;99.90
5218;DHT22;26539;51.064;6.346;2023-12-07T12:13:45;12.10;99.90
5218;DHT22;26539;51.064;6.346;2023-12-07T12:16:12;12.30;99.90
5218;DHT22;26539;51.064;6.346;2023-12-07T12:18:38;12.30;99.90
5218;DHT22;26539;51.064;6.346;2023-12-07T12:21:05;11.80;99.90
5218;DHT22;26539;51.064;6.346;2023-12-07T12:23:31;11.60;99.90
5218;DHT22;26539;51.064;6.346;2023-12-07T12:25:57;11.50;99.90
5218;DHT22;26539;51.064;6.346;2023-12-07T12:28:24;11.90;99.90
5218;DHT22;26539;51.064;6.346;2023-12-07T12:30:56;12.10;99.90
5218;DHT22;26539;51.064;6.346;2023-12-07T12:33:21;12.00;99.90
5218;DHT22;26539;51.064;6.346;2023-12-07T12:36:01;11.60;99.90
5218;DHT22;26539;51.064;6.346;2023-12-07T12:38:27;11.50;99.90
5218;DHT22;26539;51.064;6.346;2023-12-07T12:40:54;11.60;99.90
5218;DHT22;26539;51.064;6.346;2023-12-07T12:43:24;11.20;99.90
5218;DHT22;26539;51.064;6.346;2023-12-07T12:45:50;11.30;99.90
5218;DHT22;26539;51.064;6.346;2023-12-07T12:48:16;11.20;99.90
5218;DHT22;26539;51.064;6.346;2023-12-07T12:50:41;11.00;99.90
5218;DHT22;26539;51.064;6.346;2023-12-07T12:53:09;10.90;99.90
5218;DHT22;26539;51.064;6.346;2023-12-07T12:55:40;10.60;99.90
5218;DHT22;26539;51.064;6.346;2023-12-07T12:58:11;10.20;99.90
5218;DHT22;26539;51.064;6.346;2023-12-07T13:00:40;9.70;99.90
5218;DHT22;26539;51.064;6.346;2023-12-07T13:03:07;9.70;99.90
5218;DHT22;26539;51.064;6.346;2023-12-07T13:05:33;9.40;99.90
5218;DHT22;26539;51.064;6.346;2023-12-07T13:08:00;9.60;99.90
5218;DHT22;26539;51.064;6.346;2023-12-07T13:10:26;9.30;99.90
5218;DHT22;26539;51.064;6.346;2023-12-07T13:12:52;9.50;99.90
5218;DHT22;26539;51.064;6.346;2023-12-07T13:15:24;9.70;99.90
5218;DHT22;26539;51.064;6.346;2023-12-07T13:17:52;9.80;99.90
5218;DHT22;26539;51.064;6.346;2023-12-07T13:20:17;9.80;99.90
5218;DHT22;26539;51.064;6.346;2023-12-07T13:22:43;9.80;99.90
5218;DHT22;26539;51.064;6.346;2023-12-07T13:25:09;10.10;99.90
5218;DHT22;26539;51.064;6.346;2023-12-07T13:27:35;9.90;99.90
5218;DHT22;26539;51.064;6.346;2023-12-07T13:30:02;9.80;99.90
5218;DHT22;26539;51.064;6.346;2023-12-07T13:32:32;9.60;99.90
5218;DHT22;26539;51.064;6.346;2023-12-07T13:34:58;9.30;99.90
5218;DHT22;26539;51.064;6.346;2023-12-07T13:37:24;8.80;99.90
5218;DHT22;26539;51.064;6.346;2023-12-07T13:39:49;8.60;99.90
5218;DHT22;26539;51.064;6.346;2023-12-07T13:42:21;8.40;99.90
5218;DHT22;26539;51.064;6.346;2023-12-07T13:44:49;8.20;1.00
5218;DHT22;26539;51.064;6.346;2023-12-07T13:47:17;7.90;1.00
5218;DHT22;26539;51.064;6.346;2023-12-07T13:49:43;7.70;1.00
5218;DHT22;26539;51.064;6.346;2023-12-07T13:52:17;7.50;1.00
5218;DHT22;26539;51.064;6.346;2023-12-07T13:54:43;7.30;1.00
5218;DHT22;26539;51.064;6.346;2023-12-07T13:57:08;7.10;1.00
5218;DHT22;26539;51.064;6.346;2023-12-07T13:59:35;6.90;1.00
5218;DHT22;26539;51.064;6.346;2023-12-07T14:02:02;6.80;1.00
5218;DHT22;26539;51.064;6.346;2023-12-07T14:04:28;6.60;1.00
5218;DHT22;26539;51.064;6.346;2023-12-07T14:06:53;6.70;26.80
5218;DHT22;26539;51.064;6.346;2023-12-07T14:09:22;6.50;99.90
5218;DHT22;26539;51.064;6.346;2023-12-07T14:11:48;6.30;99.90
5218;DHT22;26539;51.064;6.346;2023-12-07T14:14:13;6.20;99.90
5218;DHT22;26539;51.064;6.346;2023-12-07T14:16:39;6.10;99.90
5218;DHT22;26539;51.064;6.346;2023-12-07T14:19:05;6.10;1.00
5218;DHT22;26539;51.064;6.346;2023-12-07T14:21:31;6.00;1.00
5218;DHT22;26539;51.064;6.346;2023-12-07T14:24:04;5.90;1.00
5218;DHT22;26539;51.064;6.346;2023-12-07T14:26:30;5.70;99.90
5218;DHT22;26539;51.064;6.346;2023-12-07T14:29:02;5.70;99.90
5218;DHT22;26539;51.064;6.346;2023-12-07T14:31:30;5.50;99.90
5218;DHT22;26539;51.064;6.346;2023-12-07T14:34:05;5.50;1.00
5218;DHT22;26539;51.064;6.346;2023-12-07T14:36:30;5.30;1.00
5218;DHT22;26539;51.064;6.346;2023-12-07T14:38:56;5.30;99.90
5218;DHT22;26539;51.064;6.346;2023-12-07T14:41:21;5.20;99.90
5218;DHT22;26539;51.064;6.346;2023-12-07T14:43:54;5.20;99.90
5218;DHT22;26539;51.064;6.346;2023-12-07T14:46:19;5.10;1.00
5218;DHT22;26539;51.064;6.346;2023-12-07T14:48:45;5.10;99.90
5218;DHT22;26539;51.064;6.346;2023-12-07T14:51:11;5.00;1.00
5218;DHT22;26539;51.064;6.346;2023-12-07T14:53:36;4.90;1.00
5218;DHT22;26539;51.064;6.346;2023-12-07T14:56:02;4.90;1.00
5218;DHT22;26539;51.064;6.346;2023-12-07T14:58:27;4.80;99.90
5218;DHT22;26539;51.064;6.346;2023-12-07T15:00:53;4.90;1.00
5218;DHT22;26539;51.064;6.346;2023-12-07T15:03:21;4.80;1.00
5218;DHT22;26539;51.064;6.346;2023-12-07T15:05:47;4.70;99.90
5218;DHT22;26539;51.064;6.346;2023-12-07T15:08:15;4.60;1.00
5218;DHT22;26539;51.064;6.346;2023-12-07T15:10:41;4.50;99.90
5218;DHT22;26539;51.064;6.346;2023-12-07T15:13:07;4.40;1.00
5218;DHT22;26539;51.064;6.346;2023-12-07T15:15:33;4.40;1.00
5218;DHT22;26539;51.064;6.346;2023-12-07T15:17:58;4.30;99.90
5218;DHT22;26539;51.064;6.346;2023-12-07T15:20:24;4.30;1.00
5218;DHT22;26539;51.064;6.346;2023-12-07T15:22:49;4.20;99.90
5218;DHT22;26539;51.064;6.346;2023-12-07T15:25:15;4.10;1.00
5218;DHT22;26539;51.064;6.346;2023-12-07T15:27:40;4.10;1.00
5218;DHT22;26539;51.064;6.346;2023-12-07T15:30:10;4.00;1.00
5218;DHT22;26539;51.064;6.346;2023-12-07T15:32:36;4.00;1.00
5218;DHT22;26539;51.064;6.346;2023-12-07T15:35:02;4.10;99.90
5218;DHT22;26539;51.064;6.346;2023-12-07T15:37:31;4.00;99.90
5218;DHT22;26539;51.064;6.346;2023-12-07T15:39:56;4.10;99.90
5218;DHT22;26539;51.064;6.346;2023-12-07T15:42:22;4.00;99.90
5218;DHT22;26539;51.064;6.346;2023-12-07T15:45:07;3.90;99.90
5218;DHT22;26539;51.064;6.346;2023-12-07T15:47:50;4.00;99.90
5218;DHT22;26539;51.064;6.346;2023-12-07T15:50:18;4.00;99.90
5218;DHT22;26539;51.064;6.346;2023-12-07T15:52:44;3.90;1.00
5218;DHT22;26539;51.064;6.346;2023-12-07T15:55:19;4.00;99.90
5218;DHT22;26539;51.064;6.346;2023-12-07T15:57:47;4.00;1.00
5218;DHT22;26539;51.064;6.346;2023-12-07T16:00:13;3.90;74.50
5218;DHT22;26539;51.064;6.346;2023-12-07T16:02:39;3.90;99.90
5218;DHT22;26539;51.064;6.346;2023-12-07T16:05:05;3.80;99.90
5218;DHT22;26539;51.064;6.346;2023-12-07T16:07:34;3.80;99.90
5218;DHT22;26539;51.064;6.346;2023-12-07T16:10:07;3.70;1.00
5218;DHT22;26539;51.064;6.346;2023-12-07T16:12:36;3.60;1.00
5218;DHT22;26539;51.064;6.346;2023-12-07T16:15:02;3.50;99.90
5218;DHT22;26539;51.064;6.346;2023-12-07T16:17:28;3.50;1.00
5218;DHT22;26539;51.064;6.346;2023-12-07T16:20:01;3.30;1.00
5218;DHT22;26539;51.064;6.346;2023-12-07T16:22:26;3.30;1.00
5218;DHT22;26539;51.064;6.346;2023-12-07T16:24:52;3.30;1.00
5218;DHT22;26539;51.064;6.346;2023-12-07T16:27:18;3.20;1.00
5218;DHT22;26539;51.064;6.346;2023-12-07T16:29:44;3.20;3.30